OIIS  Semnan Airport

Add Bookmark

Semnan, Iran

Status
Operational
Latitude Longitude
35° 35' 27" N 53° 29' 42" E
35.591099 53.495098
Local (DST + 5) UTC (GMT + 4)
Oct 24, 2014 06:07 Oct 24, 2014 14:37
Sunrise-Sunset Local UTC
Begin Civil Twilight 05:43 02:13
Sunrise 06:09 02:39
Sunset 05:11 13:41
End Civil Twilight 05:37 14:07

Current Weather

METAR Observed VFR
OIIS 241400Z 09002KT CAVOK 21/05 Q1017 Fri, Oct 24, 2014 @ 14:00 UTC
(37 Minutes ago)
Visual Flight Rules
Wind Visibility Clouds Conditions
090° at 2 knots (4 kph) 10 km or more
  • Clear skies
  • No significant weather
Temperatures Readings Precipitation
Current Temp 21°C (70°F)
Dewpoint 5°C (41°F)
Humidity 35%
Altimeter 30.03"Hg
Sea Level Pressure 1017mb
Field Elevation 3658.14'
None Recorded

Additional weather within a 185.2km radius of OIIS

Map ICAO Location
OINZ 119.3km N (347°)
OINB 146.5km N (329°)
OING 167.4km N (029°)

24 Hour Weather History

Loading
-

24 Hour Weather Graphs

Loading
-

CheckWX.com is intended as a tool to help pilots better visualize weather data. It is not intended as a substitute for an official weather briefing obtained from a Flight Service Station. CheckWX.com does not meet the FAA requirements for an official pre-flight weather briefing. Therefore, it's important that pilots still call and obtain an official FSS pre-flight weather briefing.